sensor_id;sensor_type;location;lat;lon;timestamp;P1;durP1;ratioP1;P2;durP2;ratioP2
55254;SDS011;41118;44.634;11.182;2022-09-06T00:00:08;5.38;;;0.20;;
55254;SDS011;41118;44.634;11.182;2022-09-06T00:02:35;1.25;;;0.20;;
55254;SDS011;41118;44.634;11.182;2022-09-06T00:05:01;1.55;;;0.22;;
55254;SDS011;41118;44.634;11.182;2022-09-06T00:07:28;0.80;;;0.20;;
55254;SDS011;41118;44.634;11.182;2022-09-06T00:09:55;1.98;;;0.65;;
55254;SDS011;41118;44.634;11.182;2022-09-06T00:12:21;0.75;;;0.30;;
55254;SDS011;41118;44.634;11.182;2022-09-06T00:14:47;0.63;;;0.30;;
55254;SDS011;41118;44.634;11.182;2022-09-06T00:17:14;0.63;;;0.20;;
55254;SDS011;41118;44.634;11.182;2022-09-06T00:19:40;0.90;;;0.20;;
55254;SDS011;41118;44.634;11.182;2022-09-06T00:22:07;0.90;;;0.13;;
55254;SDS011;41118;44.634;11.182;2022-09-06T00:24:33;1.90;;;0.20;;
55254;SDS011;41118;44.634;11.182;2022-09-06T00:27:01;0.73;;;0.32;;
55254;SDS011;41118;44.634;11.182;2022-09-06T00:29:27;1.27;;;0.20;;
55254;SDS011;41118;44.634;11.182;2022-09-06T00:31:54;2.90;;;0.20;;
55254;SDS011;41118;44.634;11.182;2022-09-06T00:34:20;1.45;;;0.20;;
55254;SDS011;41118;44.634;11.182;2022-09-06T00:36:46;2.00;;;0.20;;
55254;SDS011;41118;44.634;11.182;2022-09-06T00:39:13;2.97;;;0.20;;
55254;SDS011;41118;44.634;11.182;2022-09-06T00:41:39;1.67;;;0.20;;
55254;SDS011;41118;44.634;11.182;2022-09-06T00:44:05;4.32;;;0.20;;
55254;SDS011;41118;44.634;11.182;2022-09-06T00:46:31;0.80;;;0.20;;
55254;SDS011;41118;44.634;11.182;2022-09-06T00:49:00;0.90;;;0.20;;
55254;SDS011;41118;44.634;11.182;2022-09-06T00:51:28;3.55;;;0.50;;
55254;SDS011;41118;44.634;11.182;2022-09-06T00:53:55;2.28;;;0.20;;
55254;SDS011;41118;44.634;11.182;2022-09-06T00:56:22;0.63;;;0.10;;
55254;SDS011;41118;44.634;11.182;2022-09-06T00:58:49;0.98;;;0.20;;
55254;SDS011;41118;44.634;11.182;2022-09-06T01:01:15;1.80;;;0.20;;
55254;SDS011;41118;44.634;11.182;2022-09-06T01:03:41;0.60;;;0.10;;
55254;SDS011;41118;44.634;11.182;2022-09-06T01:11:14;0.50;;;0.20;;
55254;SDS011;41118;44.634;11.182;2022-09-06T01:16:31;0.60;;;0.20;;
55254;SDS011;41118;44.634;11.182;2022-09-06T01:29:32;1.52;;;0.13;;
55254;SDS011;41118;44.634;11.182;2022-09-06T01:32:25;2.90;;;0.30;;
55254;SDS011;41118;44.634;11.182;2022-09-06T01:34:53;1.35;;;0.20;;
55254;SDS011;41118;44.634;11.182;2022-09-06T01:37:21;2.65;;;0.30;;
55254;SDS011;41118;44.634;11.182;2022-09-06T01:39:48;1.98;;;0.20;;
55254;SDS011;41118;44.634;11.182;2022-09-06T01:44:44;1.17;;;0.20;;
55254;SDS011;41118;44.634;11.182;2022-09-06T01:47:15;0.60;;;0.10;;
55254;SDS011;41118;44.634;11.182;2022-09-06T01:52:17;1.25;;;0.20;;
55254;SDS011;41118;44.634;11.182;2022-09-06T02:00:11;1.70;;;0.20;;
55254;SDS011;41118;44.634;11.182;2022-09-06T02:05:12;1.58;;;0.30;;
55254;SDS011;41118;44.634;11.182;2022-09-06T02:07:41;0.40;;;0.20;;
55254;SDS011;41118;44.634;11.182;2022-09-06T02:10:12;3.63;;;0.20;;
55254;SDS011;41118;44.634;11.182;2022-09-06T02:12:40;0.65;;;0.10;;
55254;SDS011;41118;44.634;11.182;2022-09-06T02:15:09;0.50;;;0.20;;
55254;SDS011;41118;44.634;11.182;2022-09-06T02:17:37;0.52;;;0.13;;
55254;SDS011;41118;44.634;11.182;2022-09-06T02:20:05;2.58;;;0.20;;
55254;SDS011;41118;44.634;11.182;2022-09-06T02:22:35;1.65;;;0.20;;
55254;SDS011;41118;44.634;11.182;2022-09-06T02:25:02;0.60;;;0.10;;
55254;SDS011;41118;44.634;11.182;2022-09-06T02:27:31;0.55;;;0.10;;
55254;SDS011;41118;44.634;11.182;2022-09-06T02:29:58;0.70;;;0.20;;
55254;SDS011;41118;44.634;11.182;2022-09-06T02:32:26;2.65;;;0.20;;
55254;SDS011;41118;44.634;11.182;2022-09-06T02:34:55;1.33;;;0.47;;
55254;SDS011;41118;44.634;11.182;2022-09-06T02:37:22;1.02;;;0.13;;
55254;SDS011;41118;44.634;11.182;2022-09-06T02:39:50;0.38;;;0.10;;
55254;SDS011;41118;44.634;11.182;2022-09-06T02:42:16;0.95;;;0.20;;
55254;SDS011;41118;44.634;11.182;2022-09-06T02:44:43;0.40;;;0.20;;
55254;SDS011;41118;44.634;11.182;2022-09-06T02:47:09;0.77;;;0.20;;
55254;SDS011;41118;44.634;11.182;2022-09-06T02:49:35;2.55;;;0.30;;
55254;SDS011;41118;44.634;11.182;2022-09-06T02:52:02;0.77;;;0.20;;
55254;SDS011;41118;44.634;11.182;2022-09-06T02:54:28;0.93;;;0.20;;
55254;SDS011;41118;44.634;11.182;2022-09-06T02:56:55;0.88;;;0.20;;
55254;SDS011;41118;44.634;11.182;2022-09-06T02:59:21;2.70;;;0.20;;
55254;SDS011;41118;44.634;11.182;2022-09-06T03:01:48;0.50;;;0.10;;
55254;SDS011;41118;44.634;11.182;2022-09-06T03:04:14;0.40;;;0.10;;
55254;SDS011;41118;44.634;11.182;2022-09-06T03:06:40;1.60;;;0.10;;
55254;SDS011;41118;44.634;11.182;2022-09-06T03:09:06;0.60;;;0.10;;
55254;SDS011;41118;44.634;11.182;2022-09-06T03:11:34;0.52;;;0.10;;
55254;SDS011;41118;44.634;11.182;2022-09-06T03:14:00;4.53;;;0.17;;
55254;SDS011;41118;44.634;11.182;2022-09-06T03:16:26;0.43;;;0.10;;
55254;SDS011;41118;44.634;11.182;2022-09-06T03:18:53;1.17;;;0.10;;
55254;SDS011;41118;44.634;11.182;2022-09-06T03:21:19;1.10;;;0.15;;
55254;SDS011;41118;44.634;11.182;2022-09-06T03:23:46;0.30;;;0.10;;
55254;SDS011;41118;44.634;11.182;2022-09-06T03:26:13;0.68;;;0.15;;
55254;SDS011;41118;44.634;11.182;2022-09-06T03:28:40;2.47;;;0.30;;
55254;SDS011;41118;44.634;11.182;2022-09-06T03:31:07;1.27;;;0.20;;
55254;SDS011;41118;44.634;11.182;2022-09-06T03:33:33;2.53;;;0.15;;
55254;SDS011;41118;44.634;11.182;2022-09-06T03:36:00;0.65;;;0.10;;
55254;SDS011;41118;44.634;11.182;2022-09-06T03:38:27;0.73;;;0.10;;
55254;SDS011;41118;44.634;11.182;2022-09-06T03:40:53;2.60;;;0.30;;
55254;SDS011;41118;44.634;11.182;2022-09-06T03:43:20;0.55;;;0.10;;
55254;SDS011;41118;44.634;11.182;2022-09-06T03:45:47;7.30;;;0.82;;
55254;SDS011;41118;44.634;11.182;2022-09-06T03:48:14;2.13;;;0.20;;
55254;SDS011;41118;44.634;11.182;2022-09-06T03:50:44;3.53;;;0.10;;
55254;SDS011;41118;44.634;11.182;2022-09-06T03:53:11;1.58;;;0.32;;
55254;SDS011;41118;44.634;11.182;2022-09-06T03:55:38;2.10;;;0.25;;
55254;SDS011;41118;44.634;11.182;2022-09-06T03:58:04;0.90;;;0.10;;
55254;SDS011;41118;44.634;11.182;2022-09-06T04:00:31;0.30;;;0.10;;
55254;SDS011;41118;44.634;11.182;2022-09-06T04:02:57;0.68;;;0.20;;
55254;SDS011;41118;44.634;11.182;2022-09-06T04:05:23;0.50;;;0.20;;
55254;SDS011;41118;44.634;11.182;2022-09-06T04:07:50;0.57;;;0.10;;
55254;SDS011;41118;44.634;11.182;2022-09-06T04:10:17;1.23;;;0.10;;
55254;SDS011;41118;44.634;11.182;2022-09-06T04:12:43;1.75;;;0.10;;
55254;SDS011;41118;44.634;11.182;2022-09-06T04:15:09;1.10;;;0.10;;
55254;SDS011;41118;44.634;11.182;2022-09-06T04:17:35;0.65;;;0.30;;
55254;SDS011;41118;44.634;11.182;2022-09-06T04:20:02;1.13;;;0.20;;
55254;SDS011;41118;44.634;11.182;2022-09-06T04:22:28;0.80;;;0.20;;
55254;SDS011;41118;44.634;11.182;2022-09-06T04:24:55;2.05;;;0.28;;
55254;SDS011;41118;44.634;11.182;2022-09-06T04:27:22;1.45;;;0.10;;
55254;SDS011;41118;44.634;11.182;2022-09-06T04:29:48;1.33;;;0.10;;
55254;SDS011;41118;44.634;11.182;2022-09-06T04:32:15;2.70;;;0.10;;
55254;SDS011;41118;44.634;11.182;2022-09-06T04:34:41;0.68;;;0.10;;
55254;SDS011;41118;44.634;11.182;2022-09-06T04:37:07;0.57;;;0.10;;
55254;SDS011;41118;44.634;11.182;2022-09-06T04:39:33;0.60;;;0.13;;
55254;SDS011;41118;44.634;11.182;2022-09-06T04:41:59;3.05;;;0.20;;
55254;SDS011;41118;44.634;11.182;2022-09-06T04:44:25;3.92;;;0.20;;
55254;SDS011;41118;44.634;11.182;2022-09-06T04:47:01;2.28;;;0.20;;
55254;SDS011;41118;44.634;11.182;2022-09-06T04:49:28;0.60;;;0.20;;
55254;SDS011;41118;44.634;11.182;2022-09-06T04:51:54;3.20;;;0.20;;
55254;SDS011;41118;44.634;11.182;2022-09-06T04:54:20;0.40;;;0.13;;
55254;SDS011;41118;44.634;11.182;2022-09-06T04:56:47;2.47;;;0.20;;
55254;SDS011;41118;44.634;11.182;2022-09-06T04:59:13;2.28;;;0.10;;
55254;SDS011;41118;44.634;11.182;2022-09-06T05:01:39;2.53;;;0.20;;
55254;SDS011;41118;44.634;11.182;2022-09-06T05:04:05;1.50;;;0.40;;
55254;SDS011;41118;44.634;11.182;2022-09-06T05:06:32;1.77;;;0.30;;
55254;SDS011;41118;44.634;11.182;2022-09-06T05:08:58;1.50;;;0.40;;
55254;SDS011;41118;44.634;11.182;2022-09-06T05:11:25;1.75;;;0.20;;
55254;SDS011;41118;44.634;11.182;2022-09-06T05:13:51;1.88;;;0.40;;
55254;SDS011;41118;44.634;11.182;2022-09-06T05:16:17;1.10;;;0.20;;
55254;SDS011;41118;44.634;11.182;2022-09-06T05:18:43;0.50;;;0.10;;
55254;SDS011;41118;44.634;11.182;2022-09-06T05:21:10;0.63;;;0.10;;
55254;SDS011;41118;44.634;11.182;2022-09-06T05:23:36;6.80;;;0.30;;
55254;SDS011;41118;44.634;11.182;2022-09-06T05:26:03;1.00;;;0.20;;
55254;SDS011;41118;44.634;11.182;2022-09-06T05:28:30;0.82;;;0.28;;
55254;SDS011;41118;44.634;11.182;2022-09-06T05:33:31;3.17;;;0.20;;
55254;SDS011;41118;44.634;11.182;2022-09-06T05:35:58;1.00;;;0.10;;
55254;SDS011;41118;44.634;11.182;2022-09-06T05:38:24;4.25;;;0.57;;
55254;SDS011;41118;44.634;11.182;2022-09-06T05:40:50;1.17;;;0.20;;
55254;SDS011;41118;44.634;11.182;2022-09-06T05:43:17;2.38;;;0.20;;
55254;SDS011;41118;44.634;11.182;2022-09-06T05:45:43;1.25;;;0.20;;
55254;SDS011;41118;44.634;11.182;2022-09-06T05:48:09;5.78;;;0.20;;
55254;SDS011;41118;44.634;11.182;2022-09-06T05:50:35;0.60;;;0.10;;
55254;SDS011;41118;44.634;11.182;2022-09-06T05:53:02;1.15;;;0.10;;
55254;SDS011;41118;44.634;11.182;2022-09-06T05:55:28;2.22;;;0.20;;
55254;SDS011;41118;44.634;11.182;2022-09-06T05:57:55;5.40;;;0.60;;
55254;SDS011;41118;44.634;11.182;2022-09-06T06:00:23;8.90;;;1.33;;
55254;SDS011;41118;44.634;11.182;2022-09-06T06:02:49;27.50;;;9.57;;
55254;SDS011;41118;44.634;11.182;2022-09-06T06:05:16;22.55;;;5.95;;
55254;SDS011;41118;44.634;11.182;2022-09-06T06:07:42;19.50;;;4.07;;
55254;SDS011;41118;44.634;11.182;2022-09-06T06:10:09;27.73;;;4.32;;
55254;SDS011;41118;44.634;11.182;2022-09-06T06:12:35;11.95;;;2.75;;
55254;SDS011;41118;44.634;11.182;2022-09-06T06:15:01;16.38;;;3.13;;
55254;SDS011;41118;44.634;11.182;2022-09-06T06:17:29;10.63;;;2.95;;
55254;SDS011;41118;44.634;11.182;2022-09-06T06:19:56;11.80;;;1.60;;
55254;SDS011;41118;44.634;11.182;2022-09-06T06:22:22;6.63;;;0.93;;
55254;SDS011;41118;44.634;11.182;2022-09-06T06:24:49;8.95;;;1.33;;
55254;SDS011;41118;44.634;11.182;2022-09-06T06:27:15;14.13;;;1.10;;
55254;SDS011;41118;44.634;11.182;2022-09-06T06:29:41;6.03;;;0.50;;
55254;SDS011;41118;44.634;11.182;2022-09-06T06:32:07;8.02;;;0.85;;
55254;SDS011;41118;44.634;11.182;2022-09-06T06:34:34;4.53;;;1.08;;
55254;SDS011;41118;44.634;11.182;2022-09-06T06:37:00;2.70;;;0.50;;
55254;SDS011;41118;44.634;11.182;2022-09-06T06:39:26;1.98;;;0.63;;
55254;SDS011;41118;44.634;11.182;2022-09-06T06:41:52;1.98;;;0.50;;
55254;SDS011;41118;44.634;11.182;2022-09-06T06:44:19;3.35;;;0.50;;
55254;SDS011;41118;44.634;11.182;2022-09-06T06:46:45;2.25;;;0.30;;
55254;SDS011;41118;44.634;11.182;2022-09-06T06:49:12;2.33;;;0.40;;
55254;SDS011;41118;44.634;11.182;2022-09-06T06:51:38;6.75;;;1.35;;
55254;SDS011;41118;44.634;11.182;2022-09-06T06:54:05;3.30;;;0.80;;
55254;SDS011;41118;44.634;11.182;2022-09-06T06:56:32;1.48;;;0.73;;
55254;SDS011;41118;44.634;11.182;2022-09-06T06:58:59;2.65;;;0.40;;
55254;SDS011;41118;44.634;11.182;2022-09-06T07:01:27;1.42;;;0.50;;
55254;SDS011;41118;44.634;11.182;2022-09-06T07:03:53;1.10;;;0.35;;
55254;SDS011;41118;44.634;11.182;2022-09-06T07:06:19;1.38;;;0.40;;
55254;SDS011;41118;44.634;11.182;2022-09-06T07:08:46;2.42;;;0.88;;
55254;SDS011;41118;44.634;11.182;2022-09-06T07:11:13;3.03;;;0.60;;
55254;SDS011;41118;44.634;11.182;2022-09-06T07:13:39;1.48;;;0.30;;
55254;SDS011;41118;44.634;11.182;2022-09-06T07:16:17;4.47;;;0.30;;
55254;SDS011;41118;44.634;11.182;2022-09-06T07:18:44;8.57;;;1.33;;
55254;SDS011;41118;44.634;11.182;2022-09-06T07:21:14;1.63;;;0.50;;
55254;SDS011;41118;44.634;11.182;2022-09-06T07:26:16;6.32;;;0.50;;
55254;SDS011;41118;44.634;11.182;2022-09-06T07:28:42;4.90;;;0.73;;
55254;SDS011;41118;44.634;11.182;2022-09-06T07:31:09;3.22;;;0.50;;
55254;SDS011;41118;44.634;11.182;2022-09-06T07:33:36;3.15;;;0.57;;
55254;SDS011;41118;44.634;11.182;2022-09-06T07:36:03;4.18;;;0.70;;
55254;SDS011;41118;44.634;11.182;2022-09-06T07:38:29;2.47;;;0.40;;
55254;SDS011;41118;44.634;11.182;2022-09-06T07:40:57;2.97;;;0.40;;
55254;SDS011;41118;44.634;11.182;2022-09-06T07:43:23;2.03;;;0.43;;
55254;SDS011;41118;44.634;11.182;2022-09-06T07:46:00;1.38;;;0.30;;
55254;SDS011;41118;44.634;11.182;2022-09-06T07:48:27;1.58;;;0.50;;
55254;SDS011;41118;44.634;11.182;2022-09-06T07:50:53;1.50;;;0.68;;
55254;SDS011;41118;44.634;11.182;2022-09-06T07:53:19;5.10;;;2.97;;
55254;SDS011;41118;44.634;11.182;2022-09-06T07:55:45;6.13;;;1.08;;
55254;SDS011;41118;44.634;11.182;2022-09-06T07:58:12;2.55;;;0.85;;
55254;SDS011;41118;44.634;11.182;2022-09-06T08:00:38;6.38;;;0.50;;
55254;SDS011;41118;44.634;11.182;2022-09-06T08:03:05;3.42;;;1.40;;
55254;SDS011;41118;44.634;11.182;2022-09-06T08:05:31;2.50;;;0.57;;
55254;SDS011;41118;44.634;11.182;2022-09-06T08:07:58;1.40;;;0.50;;
55254;SDS011;41118;44.634;11.182;2022-09-06T08:10:24;2.00;;;0.47;;
55254;SDS011;41118;44.634;11.182;2022-09-06T08:12:53;3.58;;;3.13;;
55254;SDS011;41118;44.634;11.182;2022-09-06T08:15:20;3.90;;;0.40;;
55254;SDS011;41118;44.634;11.182;2022-09-06T08:17:49;2.17;;;0.88;;
55254;SDS011;41118;44.634;11.182;2022-09-06T08:20:16;1.48;;;0.38;;
55254;SDS011;41118;44.634;11.182;2022-09-06T08:22:42;2.08;;;1.88;;
55254;SDS011;41118;44.634;11.182;2022-09-06T08:25:09;3.80;;;1.08;;
55254;SDS011;41118;44.634;11.182;2022-09-06T08:27:35;1.23;;;0.50;;
55254;SDS011;41118;44.634;11.182;2022-09-06T08:30:02;8.98;;;0.40;;
55254;SDS011;41118;44.634;11.182;2022-09-06T08:32:31;3.33;;;0.70;;
55254;SDS011;41118;44.634;11.182;2022-09-06T08:34:57;4.55;;;0.30;;
55254;SDS011;41118;44.634;11.182;2022-09-06T08:37:24;1.75;;;0.80;;
55254;SDS011;41118;44.634;11.182;2022-09-06T08:39:50;1.60;;;0.50;;
55254;SDS011;41118;44.634;11.182;2022-09-06T08:42:16;1.38;;;0.50;;
55254;SDS011;41118;44.634;11.182;2022-09-06T08:44:47;19.65;;;1.77;;
55254;SDS011;41118;44.634;11.182;2022-09-06T08:47:16;1.67;;;0.30;;
55254;SDS011;41118;44.634;11.182;2022-09-06T08:49:43;3.38;;;1.50;;
55254;SDS011;41118;44.634;11.182;2022-09-06T08:54:38;4.35;;;1.95;;
55254;SDS011;41118;44.634;11.182;2022-09-06T08:59:35;1.20;;;0.82;;
55254;SDS011;41118;44.634;11.182;2022-09-06T09:02:07;2.75;;;1.35;;
55254;SDS011;41118;44.634;11.182;2022-09-06T09:04:34;7.88;;;1.65;;
55254;SDS011;41118;44.634;11.182;2022-09-06T09:07:13;4.47;;;3.70;;
55254;SDS011;41118;44.634;11.182;2022-09-06T09:09:41;8.90;;;8.38;;
55254;SDS011;41118;44.634;11.182;2022-09-06T09:12:07;2.97;;;0.60;;
55254;SDS011;41118;44.634;11.182;2022-09-06T09:14:36;3.22;;;0.40;;
55254;SDS011;41118;44.634;11.182;2022-09-06T09:17:11;2.45;;;0.63;;
55254;SDS011;41118;44.634;11.182;2022-09-06T09:22:06;3.00;;;0.55;;
55254;SDS011;41118;44.634;11.182;2022-09-06T09:24:34;3.13;;;1.00;;
55254;SDS011;41118;44.634;11.182;2022-09-06T09:27:07;4.22;;;3.33;;
55254;SDS011;41118;44.634;11.182;2022-09-06T09:34:55;1.73;;;0.40;;
55254;SDS011;41118;44.634;11.182;2022-09-06T09:37:39;1.80;;;0.32;;
55254;SDS011;41118;44.634;11.182;2022-09-06T09:40:06;1.42;;;0.50;;
55254;SDS011;41118;44.634;11.182;2022-09-06T09:42:37;3.45;;;1.35;;
55254;SDS011;41118;44.634;11.182;2022-09-06T09:45:26;2.00;;;0.40;;
55254;SDS011;41118;44.634;11.182;2022-09-06T09:47:50;3.67;;;1.63;;
55254;SDS011;41118;44.634;11.182;2022-09-06T09:50:23;3.20;;;1.40;;
55254;SDS011;41118;44.634;11.182;2022-09-06T09:52:50;1.00;;;0.45;;
55254;SDS011;41118;44.634;11.182;2022-09-06T09:55:16;3.15;;;0.95;;
55254;SDS011;41118;44.634;11.182;2022-09-06T09:57:46;2.65;;;0.50;;
55254;SDS011;41118;44.634;11.182;2022-09-06T10:00:14;1.60;;;0.60;;
55254;SDS011;41118;44.634;11.182;2022-09-06T10:02:56;1.70;;;0.35;;
55254;SDS011;41118;44.634;11.182;2022-09-06T10:05:22;2.00;;;1.30;;
55254;SDS011;41118;44.634;11.182;2022-09-06T10:07:49;1.52;;;0.30;;
55254;SDS011;41118;44.634;11.182;2022-09-06T10:10:26;3.33;;;0.55;;
55254;SDS011;41118;44.634;11.182;2022-09-06T10:13:07;1.60;;;0.30;;
55254;SDS011;41118;44.634;11.182;2022-09-06T10:15:35;1.10;;;0.40;;
55254;SDS011;41118;44.634;11.182;2022-09-06T10:18:02;1.25;;;0.50;;
55254;SDS011;41118;44.634;11.182;2022-09-06T10:20:42;1.50;;;1.02;;
55254;SDS011;41118;44.634;11.182;2022-09-06T10:25:46;3.75;;;3.53;;
55254;SDS011;41118;44.634;11.182;2022-09-06T10:33:33;1.83;;;1.10;;
55254;SDS011;41118;44.634;11.182;2022-09-06T10:36:00;1.65;;;0.30;;
55254;SDS011;41118;44.634;11.182;2022-09-06T10:38:30;2.20;;;1.58;;
55254;SDS011;41118;44.634;11.182;2022-09-06T10:43:49;5.57;;;0.70;;
55254;SDS011;41118;44.634;11.182;2022-09-06T10:46:19;4.60;;;0.40;;
55254;SDS011;41118;44.634;11.182;2022-09-06T10:48:49;1.88;;;0.50;;
55254;SDS011;41118;44.634;11.182;2022-09-06T10:51:24;1.20;;;1.08;;
55254;SDS011;41118;44.634;11.182;2022-09-06T10:56:42;1.10;;;0.30;;
55254;SDS011;41118;44.634;11.182;2022-09-06T11:04:40;3.95;;;0.50;;
55254;SDS011;41118;44.634;11.182;2022-09-06T11:07:28;1.77;;;0.50;;
55254;SDS011;41118;44.634;11.182;2022-09-06T11:09:55;1.90;;;0.50;;
55254;SDS011;41118;44.634;11.182;2022-09-06T11:12:31;0.90;;;0.40;;
55254;SDS011;41118;44.634;11.182;2022-09-06T11:15:00;2.08;;;0.40;;
55254;SDS011;41118;44.634;11.182;2022-09-06T11:20:01;1.67;;;0.47;;
55254;SDS011;41118;44.634;11.182;2022-09-06T11:27:47;1.58;;;0.30;;
55254;SDS011;41118;44.634;11.182;2022-09-06T11:30:15;1.73;;;0.30;;
55254;SDS011;41118;44.634;11.182;2022-09-06T11:32:43;1.75;;;1.65;;
55254;SDS011;41118;44.634;11.182;2022-09-06T11:35:29;1.58;;;0.20;;
55254;SDS011;41118;44.634;11.182;2022-09-06T11:40:23;0.70;;;0.20;;
55254;SDS011;41118;44.634;11.182;2022-09-06T11:47:50;1.10;;;0.60;;
55254;SDS011;41118;44.634;11.182;2022-09-06T11:58:18;0.85;;;0.30;;
55254;SDS011;41118;44.634;11.182;2022-09-06T12:00:46;1.20;;;0.20;;
55254;SDS011;41118;44.634;11.182;2022-09-06T12:08:39;3.03;;;0.30;;
55254;SDS011;41118;44.634;11.182;2022-09-06T12:11:20;1.50;;;0.20;;
55254;SDS011;41118;44.634;11.182;2022-09-06T12:14:00;3.15;;;0.20;;
55254;SDS011;41118;44.634;11.182;2022-09-06T12:21:59;0.43;;;0.20;;
55254;SDS011;41118;44.634;11.182;2022-09-06T12:27:21;0.75;;;0.20;;
55254;SDS011;41118;44.634;11.182;2022-09-06T12:29:52;1.10;;;0.20;;
55254;SDS011;41118;44.634;11.182;2022-09-06T12:32:27;0.70;;;0.20;;
55254;SDS011;41118;44.634;11.182;2022-09-06T12:34:54;4.32;;;0.15;;
55254;SDS011;41118;44.634;11.182;2022-09-06T12:37:36;1.17;;;0.40;;
55254;SDS011;41118;44.634;11.182;2022-09-06T12:40:17;3.83;;;0.10;;
55254;SDS011;41118;44.634;11.182;2022-09-06T12:42:45;0.35;;;0.20;;
55254;SDS011;41118;44.634;11.182;2022-09-06T12:45:11;0.65;;;0.20;;
55254;SDS011;41118;44.634;11.182;2022-09-06T12:47:38;1.33;;;0.15;;
55254;SDS011;41118;44.634;11.182;2022-09-06T12:52:50;0.40;;;0.13;;
55254;SDS011;41118;44.634;11.182;2022-09-06T12:57:50;0.45;;;0.10;;
55254;SDS011;41118;44.634;11.182;2022-09-06T13:00:16;0.77;;;0.20;;
55254;SDS011;41118;44.634;11.182;2022-09-06T13:03:30;5.80;;;0.30;;
55254;SDS011;41118;44.634;11.182;2022-09-06T13:05:29;4.80;;;1.10;;
55254;SDS011;41118;44.634;11.182;2022-09-06T13:07:57;0.75;;;0.17;;
55254;SDS011;41118;44.634;11.182;2022-09-06T13:10:25;1.85;;;0.20;;
55254;SDS011;41118;44.634;11.182;2022-09-06T13:12:52;0.90;;;0.88;;
55254;SDS011;41118;44.634;11.182;2022-09-06T13:17:51;1.50;;;0.30;;
55254;SDS011;41118;44.634;11.182;2022-09-06T13:20:27;1.65;;;0.25;;
55254;SDS011;41118;44.634;11.182;2022-09-06T13:23:18;1.63;;;0.15;;
55254;SDS011;41118;44.634;11.182;2022-09-06T13:25:50;1.95;;;0.10;;
55254;SDS011;41118;44.634;11.182;2022-09-06T13:28:50;0.20;;;0.10;;
55254;SDS011;41118;44.634;11.182;2022-09-06T13:31:18;0.65;;;0.10;;
55254;SDS011;41118;44.634;11.182;2022-09-06T13:33:53;2.08;;;1.95;;
55254;SDS011;41118;44.634;11.182;2022-09-06T13:38:46;0.40;;;0.10;;
55254;SDS011;41118;44.634;11.182;2022-09-06T13:43:58;1.00;;;0.45;;
55254;SDS011;41118;44.634;11.182;2022-09-06T13:46:25;5.40;;;0.70;;
55254;SDS011;41118;44.634;11.182;2022-09-06T13:48:54;0.75;;;0.63;;
55254;SDS011;41118;44.634;11.182;2022-09-06T13:51:21;3.08;;;0.08;;
55254;SDS011;41118;44.634;11.182;2022-09-06T13:53:48;0.40;;;0.10;;
55254;SDS011;41118;44.634;11.182;2022-09-06T13:56:14;2.67;;;0.10;;
55254;SDS011;41118;44.634;11.182;2022-09-06T13:58:41;0.82;;;0.10;;
55254;SDS011;41118;44.634;11.182;2022-09-06T14:01:08;0.30;;;0.10;;
55254;SDS011;41118;44.634;11.182;2022-09-06T14:03:35;0.68;;;0.10;;
55254;SDS011;41118;44.634;11.182;2022-09-06T14:06:02;1.40;;;0.10;;
55254;SDS011;41118;44.634;11.182;2022-09-06T14:08:28;1.48;;;0.10;;
55254;SDS011;41118;44.634;11.182;2022-09-06T14:10:54;1.75;;;0.10;;
55254;SDS011;41118;44.634;11.182;2022-09-06T14:13:21;1.80;;;0.10;;
55254;SDS011;41118;44.634;11.182;2022-09-06T14:15:47;0.40;;;0.10;;
55254;SDS011;41118;44.634;11.182;2022-09-06T14:18:14;9.13;;;0.32;;
55254;SDS011;41118;44.634;11.182;2022-09-06T14:20:41;3.70;;;0.55;;
55254;SDS011;41118;44.634;11.182;2022-09-06T14:23:08;0.50;;;0.10;;
55254;SDS011;41118;44.634;11.182;2022-09-06T14:25:35;1.00;;;0.10;;
55254;SDS011;41118;44.634;11.182;2022-09-06T14:28:04;1.70;;;0.03;;
55254;SDS011;41118;44.634;11.182;2022-09-06T14:30:30;0.20;;;0.05;;
55254;SDS011;41118;44.634;11.182;2022-09-06T14:32:56;0.57;;;0.10;;
55254;SDS011;41118;44.634;11.182;2022-09-06T14:35:22;0.57;;;0.10;;
55254;SDS011;41118;44.634;11.182;2022-09-06T14:37:48;0.20;;;0.00;;
55254;SDS011;41118;44.634;11.182;2022-09-06T14:40:15;0.70;;;0.05;;
55254;SDS011;41118;44.634;11.182;2022-09-06T14:42:41;0.28;;;0.10;;
55254;SDS011;41118;44.634;11.182;2022-09-06T14:45:07;1.05;;;0.03;;
55254;SDS011;41118;44.634;11.182;2022-09-06T14:47:33;0.28;;;0.00;;
55254;SDS011;41118;44.634;11.182;2022-09-06T14:50:00;1.10;;;0.10;;
55254;SDS011;41118;44.634;11.182;2022-09-06T14:52:26;0.32;;;0.10;;
55254;SDS011;41118;44.634;11.182;2022-09-06T14:54:52;0.80;;;0.10;;
55254;SDS011;41118;44.634;11.182;2022-09-06T14:57:19;1.92;;;0.10;;
55254;SDS011;41118;44.634;11.182;2022-09-06T14:59:45;2.63;;;0.10;;
55254;SDS011;41118;44.634;11.182;2022-09-06T15:02:11;1.58;;;0.10;;
55254;SDS011;41118;44.634;11.182;2022-09-06T15:04:37;0.40;;;0.10;;
55254;SDS011;41118;44.634;11.182;2022-09-06T15:07:03;0.65;;;0.10;;
55254;SDS011;41118;44.634;11.182;2022-09-06T15:09:29;0.38;;;0.10;;
55254;SDS011;41118;44.634;11.182;2022-09-06T15:11:55;1.58;;;0.10;;
55254;SDS011;41118;44.634;11.182;2022-09-06T15:14:25;1.55;;;0.10;;
55254;SDS011;41118;44.634;11.182;2022-09-06T15:16:53;0.30;;;0.00;;
55254;SDS011;41118;44.634;11.182;2022-09-06T15:19:22;0.73;;;0.03;;
55254;SDS011;41118;44.634;11.182;2022-09-06T15:21:48;2.00;;;0.10;;
55254;SDS011;41118;44.634;11.182;2022-09-06T15:24:15;0.85;;;0.10;;
55254;SDS011;41118;44.634;11.182;2022-09-06T15:26:41;0.20;;;0.00;;
55254;SDS011;41118;44.634;11.182;2022-09-06T15:29:08;0.50;;;0.10;;
55254;SDS011;41118;44.634;11.182;2022-09-06T15:31:36;0.30;;;0.10;;
55254;SDS011;41118;44.634;11.182;2022-09-06T15:34:02;3.95;;;0.10;;
55254;SDS011;41118;44.634;11.182;2022-09-06T15:36:29;0.77;;;0.10;;
55254;SDS011;41118;44.634;11.182;2022-09-06T15:38:57;0.55;;;0.10;;
55254;SDS011;41118;44.634;11.182;2022-09-06T15:41:25;0.82;;;0.15;;
55254;SDS011;41118;44.634;11.182;2022-09-06T15:43:52;1.77;;;0.10;;
55254;SDS011;41118;44.634;11.182;2022-09-06T15:46:19;1.55;;;0.10;;
55254;SDS011;41118;44.634;11.182;2022-09-06T15:48:47;0.30;;;0.10;;
55254;SDS011;41118;44.634;11.182;2022-09-06T15:51:15;1.30;;;0.05;;
55254;SDS011;41118;44.634;11.182;2022-09-06T15:53:42;1.55;;;0.00;;
55254;SDS011;41118;44.634;11.182;2022-09-06T15:56:09;1.67;;;0.20;;
55254;SDS011;41118;44.634;11.182;2022-09-06T15:58:36;2.03;;;0.10;;
55254;SDS011;41118;44.634;11.182;2022-09-06T16:03:34;0.35;;;0.10;;
55254;SDS011;41118;44.634;11.182;2022-09-06T16:06:01;0.55;;;0.10;;
55254;SDS011;41118;44.634;11.182;2022-09-06T16:08:28;1.10;;;0.10;;
55254;SDS011;41118;44.634;11.182;2022-09-06T16:10:55;0.38;;;0.10;;
55254;SDS011;41118;44.634;11.182;2022-09-06T16:13:21;0.22;;;0.10;;
55254;SDS011;41118;44.634;11.182;2022-09-06T16:15:56;0.88;;;0.10;;
55254;SDS011;41118;44.634;11.182;2022-09-06T16:18:23;0.50;;;0.10;;
55254;SDS011;41118;44.634;11.182;2022-09-06T16:20:49;1.85;;;0.10;;
55254;SDS011;41118;44.634;11.182;2022-09-06T16:23:15;0.52;;;0.10;;
55254;SDS011;41118;44.634;11.182;2022-09-06T16:25:45;0.50;;;0.30;;
55254;SDS011;41118;44.634;11.182;2022-09-06T16:28:12;4.25;;;0.10;;
55254;SDS011;41118;44.634;11.182;2022-09-06T16:30:41;2.25;;;0.00;;
55254;SDS011;41118;44.634;11.182;2022-09-06T16:33:08;2.15;;;0.10;;
55254;SDS011;41118;44.634;11.182;2022-09-06T16:35:40;1.38;;;0.10;;
55254;SDS011;41118;44.634;11.182;2022-09-06T16:38:07;0.63;;;0.10;;